ENNA METAR and TAF weather

Enter ICAO airport designator
Station Type Date Time Source
ENNA METAR 2019/02/17 07:20 UTC NOAA

ENNA 170720Z AUTO 34022KT 2200 -SN FEW004/// SCT028/// BKN045/// M05/M07 Q1007 RESN RMK WIND 1800FT 35029G39KT


Station Type Date Time Source
ENNA Decoded METAR 2019/02/17 07:20 UTC NOAA

Banak, Norway (ENNA) 70-04N 024-59E 8M
Feb 17, 2019 - 02:20 AM EST / 2019.02.17 0720 UTC
Wind: from the NNW (340 degrees) at 25 MPH (22 KT):0
Visibility: 1 mile(s):0
Sky conditions: mostly cloudy
Weather: light snow
Temperature: 23 F (-5 C)
Windchill: 6 F (-14 C):1
Dew Point: 19 F (-7 C)
Relative Humidity: 85%
Pressure (altimeter): 29.74 in. Hg (1007 hPa)
ob: ENNA 170720Z AUTO 34022KT 2200 -SN FEW004/// SCT028/// BKN045/// M05/M07 Q1007 RESN RMK WIND 1800FT 35029G39KT
cycle: 7

Station Type Date Time Source
ENNA TAF 2019/02/17 06:57 UTC NOAA

TAF TAF ENNA 170500Z 1706/1806 35018KT 9999 BKN020
TEMPO 1706/1712 1000 SHSN BLSN VV007
BECMG 1711/1714 18008KT


Example: see airport list